Time;durP1;ratioP1;P1;durP2;ratioP2;P2;SDS_P1;SDS_P2;PMS_P1;PMS_P2;Temp;Humidity;BMP_temperature;BMP_pressure;BME280_temperature;BME280_humidity;BME280_pressure;Samples;Min_cycle;Max_cycle;Signal;HPM_P1;HPM_P2
2021/12/10 00:02:33;;;;;;;17.17;9.85;;;;;;;;;;5114835;27;20048;-70
2021/12/10 00:04:59;;;;;;;17.23;9.23;;;;;;;;;;5114617;28;20048;-70
2021/12/10 00:07:26;;;;;;;22.67;10.40;;;;;;;;;;5114406;28;20056;-69
2021/12/10 00:09:55;;;;;;;23.92;10.73;;;;;;;;;;5122638;27;20058;-68
2021/12/10 00:12:23;;;;;;;17.10;8.98;;;;;;;;;;5119016;27;20146;-70
2021/12/10 00:14:50;;;;;;;13.70;9.07;;;;;;;;;;5114312;28;20048;-69
2021/12/10 00:17:17;;;;;;;23.35;9.57;;;;;;;;;;5114493;27;20056;-70
2021/12/10 00:19:48;;;;;;;19.13;9.45;;;;;;;;;;5114778;28;20052;-69
2021/12/10 00:22:34;;;;;;;23.55;9.95;;;;;;;;;;5106013;28;20052;-69
2021/12/10 00:25:00;;;;;;;;;;;;;;;;;;5115029;28;20055;-69
2021/12/10 00:27:32;;;;;;;;;;;;;;;;;;5115191;27;45974;-69
2021/12/10 00:30:06;;;;;;;18.55;10.10;;;;;;;;;;5113990;27;46895;-69
2021/12/10 00:32:40;;;;;;;18.77;9.73;;;;;;;;;;5114797;27;20121;-70
2021/12/10 00:35:09;;;;;;;15.77;9.32;;;;;;;;;;5114316;27;20064;-69
2021/12/10 00:37:36;;;;;;;19.73;9.38;;;;;;;;;;5114098;28;20059;-70
2021/12/10 00:40:04;;;;;;;18.35;9.65;;;;;;;;;;5114079;28;20825;-69
2021/12/10 00:42:32;;;;;;;27.98;10.88;;;;;;;;;;5113347;28;20052;-69
2021/12/10 00:45:00;;;;;;;17.48;10.38;;;;;;;;;;5114170;28;20062;-69
2021/12/10 00:47:27;;;;;;;26.00;10.57;;;;;;;;;;5113500;28;20056;-69
2021/12/10 00:49:53;;;;;;;24.58;11.48;;;;;;;;;;5113462;27;20138;-69
2021/12/10 00:52:20;;;;;;;20.65;11.75;;;;;;;;;;5114269;28;20522;-69
2021/12/10 00:54:47;;;;;;;25.02;10.98;;;;;;;;;;5114268;27;20139;-68
2021/12/10 00:57:14;;;;;;;21.27;11.88;;;;;;;;;;5098285;28;20048;-69
2021/12/10 00:59:40;;;;;;;24.23;12.45;;;;;;;;;;5111618;28;20063;-69
2021/12/10 01:02:09;;;;;;;25.10;12.32;;;;;;;;;;5114810;27;20054;-69
2021/12/10 01:04:37;;;;;;;21.27;11.57;;;;;;;;;;5125644;27;20091;-69
2021/12/10 01:07:06;;;;;;;23.33;12.57;;;;;;;;;;5113858;28;20151;-69
2021/12/10 01:09:35;;;;;;;19.05;10.45;;;;;;;;;;5114218;28;20079;-69
2021/12/10 01:12:06;;;;;;;20.75;12.07;;;;;;;;;;5130623;27;20066;-68
2021/12/10 01:14:55;;;;;;;22.75;11.55;;;;;;;;;;5113892;28;20052;-69
2021/12/10 01:25:51;;;;;;;20.40;11.50;;;;;;;;;;5114310;27;20521;-69
2021/12/10 01:28:17;;;;;;;18.20;11.85;;;;;;;;;;5113550;27;20440;-70
2021/12/10 01:30:43;;;;;;;21.60;11.80;;;;;;;;;;5114017;27;20059;-69
2021/12/10 01:33:12;;;;;;;24.58;11.75;;;;;;;;;;5111968;28;20496;-69
2021/12/10 01:35:42;;;;;;;22.30;11.13;;;;;;;;;;5113582;28;20048;-70
2021/12/10 01:38:09;;;;;;;19.98;11.60;;;;;;;;;;5115380;27;20063;-69
2021/12/10 01:40:37;;;;;;;22.80;10.52;;;;;;;;;;5114203;27;20056;-69
2021/12/10 01:43:07;;;;;;;20.42;10.82;;;;;;;;;;5113379;28;20059;-69
2021/12/10 01:45:45;;;;;;;18.45;11.35;;;;;;;;;;5110663;27;20463;-69
2021/12/10 01:48:13;;;;;;;19.13;10.90;;;;;;;;;;5113379;27;20052;-68
2021/12/10 01:50:39;;;;;;;19.27;11.13;;;;;;;;;;5113226;28;20056;-69
2021/12/10 01:53:09;;;;;;;17.73;11.23;;;;;;;;;;5113507;27;20054;-69
2021/12/10 01:55:38;;;;;;;16.35;10.82;;;;;;;;;;5113306;28;20052;-69
2021/12/10 01:58:06;;;;;;;18.30;10.07;;;;;;;;;;5097891;28;20523;-69
2021/12/10 02:00:34;;;;;;;19.15;10.63;;;;;;;;;;5117482;27;20058;-69
2021/12/10 02:03:00;;;;;;;21.58;10.70;;;;;;;;;;5122279;27;20083;-69
2021/12/10 02:05:27;;;;;;;18.70;10.32;;;;;;;;;;5117288;27;20056;-68
2021/12/10 02:07:54;;;;;;;18.00;8.55;;;;;;;;;;5116047;28;20048;-69
2021/12/10 02:10:22;;;;;;;23.55;10.13;;;;;;;;;;5116465;28;20504;-69
2021/12/10 02:12:48;;;;;;;19.75;9.77;;;;;;;;;;5116176;28;20055;-69
2021/12/10 02:15:15;;;;;;;15.60;9.05;;;;;;;;;;5120231;27;20056;-69
2021/12/10 02:17:44;;;;;;;22.05;9.82;;;;;;;;;;5122920;27;20052;-69
2021/12/10 02:20:15;;;;;;;16.13;10.02;;;;;;;;;;5115100;27;20056;-69
2021/12/10 02:22:43;;;;;;;12.77;9.52;;;;;;;;;;5111072;28;20051;-69
2021/12/10 02:25:10;;;;;;;18.65;9.93;;;;;;;;;;5117883;27;20146;-69
2021/12/10 02:27:37;;;;;;;15.43;8.85;;;;;;;;;;5116171;28;20427;-69
2021/12/10 02:30:06;;;;;;;18.13;9.13;;;;;;;;;;5116462;27;20048;-69
2021/12/10 02:32:32;;;;;;;16.52;9.27;;;;;;;;;;5124528;27;20480;-68
2021/12/10 02:34:59;;;;;;;15.50;8.90;;;;;;;;;;5115616;28;20488;-69
2021/12/10 02:37:25;;;;;;;20.60;9.85;;;;;;;;;;5116256;28;20048;-69
2021/12/10 02:39:51;;;;;;;20.52;9.68;;;;;;;;;;5115347;27;20062;-69
2021/12/10 02:42:17;;;;;;;15.45;8.85;;;;;;;;;;5126465;27;20078;-69
2021/12/10 02:44:44;;;;;;;16.23;9.93;;;;;;;;;;5116156;28;20050;-69
2021/12/10 02:47:10;;;;;;;17.92;8.93;;;;;;;;;;5116027;27;20504;-69
2021/12/10 02:49:37;;;;;;;16.55;8.88;;;;;;;;;;5111964;27;20101;-69
2021/12/10 02:52:04;;;;;;;17.00;8.93;;;;;;;;;;5108157;28;20101;-69
2021/12/10 02:54:35;;;;;;;15.57;8.85;;;;;;;;;;5109091;28;20467;-68
2021/12/10 02:57:07;;;;;;;15.98;8.70;;;;;;;;;;5115743;27;20052;-69
2021/12/10 02:59:34;;;;;;;15.43;8.35;;;;;;;;;;5121170;27;20138;-68
2021/12/10 03:02:02;;;;;;;15.27;8.68;;;;;;;;;;5115593;28;20051;-69
2021/12/10 03:04:31;;;;;;;14.77;8.50;;;;;;;;;;5108814;28;20102;-69
2021/12/10 03:06:59;;;;;;;17.90;8.88;;;;;;;;;;5115752;28;20052;-69
2021/12/10 03:09:26;;;;;;;16.80;8.63;;;;;;;;;;5105690;28;20055;-69
2021/12/10 03:11:56;;;;;;;18.77;8.73;;;;;;;;;;5113013;27;20066;-69
2021/12/10 03:14:25;;;;;;;15.10;7.97;;;;;;;;;;5111900;27;20056;-68
2021/12/10 03:16:53;;;;;;;11.45;6.65;;;;;;;;;;5113333;28;20456;-69
2021/12/10 03:19:20;;;;;;;14.02;7.60;;;;;;;;;;5114581;27;20052;-69
2021/12/10 03:21:47;;;;;;;16.98;7.68;;;;;;;;;;5115601;28;20056;-69
2021/12/10 03:24:18;;;;;;;13.40;6.80;;;;;;;;;;5114837;28;20059;-69
2021/12/10 03:26:44;;;;;;;11.07;6.10;;;;;;;;;;5114703;27;20052;-69
2021/12/10 03:29:10;;;;;;;15.07;6.68;;;;;;;;;;5123397;27;20075;-69
2021/12/10 03:31:38;;;;;;;24.98;6.90;;;;;;;;;;5126758;27;20059;-69
2021/12/10 03:34:04;;;;;;;13.13;5.78;;;;;;;;;;5114361;28;20047;-69
2021/12/10 03:36:31;;;;;;;7.18;5.30;;;;;;;;;;5121345;27;20052;-69
2021/12/10 03:38:57;;;;;;;12.60;5.40;;;;;;;;;;5114616;28;20056;-69
2021/12/10 03:41:24;;;;;;;10.27;5.30;;;;;;;;;;5114814;28;20068;-68
2021/12/10 03:43:51;;;;;;;10.52;4.95;;;;;;;;;;5113008;28;20054;-69
2021/12/10 03:46:17;;;;;;;8.52;4.95;;;;;;;;;;5115192;28;20059;-69
2021/12/10 03:48:45;;;;;;;11.00;5.00;;;;;;;;;;5112993;28;20559;-68
2021/12/10 03:51:14;;;;;;;8.68;4.00;;;;;;;;;;5112666;28;20048;-68
2021/12/10 03:53:40;;;;;;;7.75;4.60;;;;;;;;;;5116677;27;20056;-69
2021/12/10 03:56:10;;;;;;;11.13;4.63;;;;;;;;;;5113044;28;20075;-68
2021/12/10 03:58:37;;;;;;;6.63;3.92;;;;;;;;;;5104655;28;20052;-69
2021/12/10 04:01:04;;;;;;;10.00;4.72;;;;;;;;;;5114464;28;20082;-69
2021/12/10 04:03:32;;;;;;;7.43;4.25;;;;;;;;;;5114440;28;20132;-69
2021/12/10 04:05:58;;;;;;;14.77;4.55;;;;;;;;;;5114319;27;20062;-69
2021/12/10 04:08:24;;;;;;;8.23;3.85;;;;;;;;;;5112578;28;20406;-68
2021/12/10 04:10:52;;;;;;;10.20;3.78;;;;;;;;;;5112795;28;20048;-69
2021/12/10 04:13:18;;;;;;;9.95;4.53;;;;;;;;;;5115560;27;20051;-68
2021/12/10 04:15:44;;;;;;;8.35;4.20;;;;;;;;;;5112572;28;20161;-68
2021/12/10 04:18:11;;;;;;;13.48;4.22;;;;;;;;;;5112449;28;20143;-69
2021/12/10 04:20:38;;;;;;;4.90;3.25;;;;;;;;;;5112063;28;20502;-69
2021/12/10 04:23:05;;;;;;;7.80;3.78;;;;;;;;;;5110259;27;20051;-68
2021/12/10 04:25:32;;;;;;;6.60;3.65;;;;;;;;;;5112907;27;20060;-69
2021/12/10 04:27:59;;;;;;;6.20;4.22;;;;;;;;;;5112096;28;20052;-69
2021/12/10 04:30:26;;;;;;;7.28;3.88;;;;;;;;;;5113758;28;20632;-69
2021/12/10 04:32:52;;;;;;;9.18;4.20;;;;;;;;;;5114936;28;20054;-69
2021/12/10 04:35:19;;;;;;;6.50;3.85;;;;;;;;;;5114308;28;20048;-69
2021/12/10 04:37:47;;;;;;;12.15;3.63;;;;;;;;;;5114193;28;20056;-69
2021/12/10 04:40:16;;;;;;;6.85;3.38;;;;;;;;;;5119287;27;20051;-69
2021/12/10 04:42:44;;;;;;;9.00;3.78;;;;;;;;;;5116251;27;20138;-70
2021/12/10 04:45:10;;;;;;;9.40;4.15;;;;;;;;;;5113713;28;20055;-70
2021/12/10 04:47:37;;;;;;;9.88;4.30;;;;;;;;;;5115366;28;20059;-69
2021/12/10 04:50:05;;;;;;;9.50;4.65;;;;;;;;;;5115410;28;20052;-69
2021/12/10 04:52:32;;;;;;;8.18;4.03;;;;;;;;;;5100601;28;20055;-70
2021/12/10 04:54:58;;;;;;;10.40;4.18;;;;;;;;;;5108682;27;20056;-69
2021/12/10 04:57:24;;;;;;;9.85;4.65;;;;;;;;;;5113873;28;20397;-69
2021/12/10 04:59:50;;;;;;;10.18;3.83;;;;;;;;;;5114190;28;20059;-69
2021/12/10 05:02:17;;;;;;;13.82;4.60;;;;;;;;;;5113887;28;20048;-69
2021/12/10 05:04:44;;;;;;;10.75;4.70;;;;;;;;;;5113719;28;20051;-69
2021/12/10 05:07:12;;;;;;;10.85;4.07;;;;;;;;;;5114136;28;20056;-69
2021/12/10 05:09:38;;;;;;;7.40;4.60;;;;;;;;;;5114567;27;20515;-69
2021/12/10 05:12:05;;;;;;;7.55;3.97;;;;;;;;;;5114346;27;20051;-69
2021/12/10 05:14:32;;;;;;;9.20;4.03;;;;;;;;;;5115708;27;20052;-68
2021/12/10 05:17:03;;;;;;;9.77;3.70;;;;;;;;;;5120088;27;20058;-69
2021/12/10 05:19:31;;;;;;;11.38;4.32;;;;;;;;;;5118786;27;20060;-69
2021/12/10 05:21:59;;;;;;;6.85;4.10;;;;;;;;;;5112712;27;20051;-69
2021/12/10 05:24:26;;;;;;;6.65;3.85;;;;;;;;;;5113128;28;20052;-69
2021/12/10 05:26:53;;;;;;;10.32;4.43;;;;;;;;;;5122264;27;20061;-69
2021/12/10 05:29:20;;;;;;;8.50;4.90;;;;;;;;;;5122561;27;20048;-69
2021/12/10 05:31:46;;;;;;;8.57;4.18;;;;;;;;;;5113430;27;20052;-69
2021/12/10 05:34:13;;;;;;;7.80;3.80;;;;;;;;;;5114837;27;20051;-69
2021/12/10 05:36:40;;;;;;;6.20;3.92;;;;;;;;;;5112615;27;20053;-69
2021/12/10 05:39:07;;;;;;;8.93;3.83;;;;;;;;;;5106868;28;20102;-69
2021/12/10 05:41:34;;;;;;;6.72;3.67;;;;;;;;;;5109529;28;20143;-70
2021/12/10 05:44:00;;;;;;;9.23;3.58;;;;;;;;;;5112453;28;20063;-71
2021/12/10 05:46:26;;;;;;;7.72;3.92;;;;;;;;;;5100553;28;20420;-70
2021/12/10 05:48:53;;;;;;;11.35;3.47;;;;;;;;;;5108165;28;20764;-70
2021/12/10 05:51:19;;;;;;;12.10;3.58;;;;;;;;;;5087155;28;20493;-69
2021/12/10 05:53:46;;;;;;;6.80;3.63;;;;;;;;;;5056122;28;20493;-70
2021/12/10 05:56:12;;;;;;;11.30;3.53;;;;;;;;;;5057771;28;20049;-70
2021/12/10 05:58:38;;;;;;;9.05;4.43;;;;;;;;;;5075035;28;20652;-70
2021/12/10 06:01:09;;;;;;;7.97;3.30;;;;;;;;;;5057185;28;20061;-70
2021/12/10 06:03:36;;;;;;;8.15;3.55;;;;;;;;;;5052799;28;20065;-70
2021/12/10 06:06:03;;;;;;;8.85;3.60;;;;;;;;;;5056056;28;20065;-70
2021/12/10 06:08:30;;;;;;;8.30;3.15;;;;;;;;;;5067830;28;20524;-70
2021/12/10 06:11:00;;;;;;;10.07;3.50;;;;;;;;;;5063963;28;20420;-70
2021/12/10 06:13:27;;;;;;;10.05;3.72;;;;;;;;;;5063153;28;20053;-70
2021/12/10 06:15:53;;;;;;;8.35;3.50;;;;;;;;;;5068490;28;20053;-70
2021/12/10 06:18:20;;;;;;;7.78;3.78;;;;;;;;;;5072410;28;20060;-70
2021/12/10 06:20:50;;;;;;;7.45;3.55;;;;;;;;;;5070674;28;20057;-70
2021/12/10 06:23:17;;;;;;;10.32;4.05;;;;;;;;;;5071119;28;20136;-70
2021/12/10 06:25:43;;;;;;;10.02;3.67;;;;;;;;;;5070674;28;20060;-70
2021/12/10 06:28:10;;;;;;;9.23;4.20;;;;;;;;;;5067159;28;20054;-70
2021/12/10 06:30:38;;;;;;;9.70;3.85;;;;;;;;;;5061202;28;20053;-70
2021/12/10 06:33:06;;;;;;;11.50;4.22;;;;;;;;;;5065527;28;20053;-69
2021/12/10 06:35:33;;;;;;;4.88;3.15;;;;;;;;;;5075154;28;20055;-70
2021/12/10 06:38:00;;;;;;;12.38;3.90;;;;;;;;;;5069395;28;20053;-69
2021/12/10 06:40:28;;;;;;;6.88;3.40;;;;;;;;;;5082942;28;20574;-68
2021/12/10 06:42:54;;;;;;;9.80;3.75;;;;;;;;;;5070793;28;20051;-69
2021/12/10 06:45:22;;;;;;;10.43;4.15;;;;;;;;;;5070646;28;20497;-69
2021/12/10 06:47:50;;;;;;;10.38;4.05;;;;;;;;;;5073692;28;20053;-70
2021/12/10 06:50:21;;;;;;;9.52;3.58;;;;;;;;;;5073895;28;20061;-70
2021/12/10 06:52:48;;;;;;;7.30;2.95;;;;;;;;;;5075147;28;20052;-69
2021/12/10 06:55:15;;;;;;;10.38;3.70;;;;;;;;;;5072845;28;20055;-70
2021/12/10 06:57:41;;;;;;;13.23;4.25;;;;;;;;;;5081586;28;20059;-69
2021/12/10 07:00:10;;;;;;;12.65;4.47;;;;;;;;;;5087747;28;20079;-70
2021/12/10 07:02:36;;;;;;;8.85;4.60;;;;;;;;;;5065484;28;20918;-70
2021/12/10 07:05:04;;;;;;;10.40;4.03;;;;;;;;;;5069582;28;20053;-70
2021/12/10 07:07:32;;;;;;;9.98;4.32;;;;;;;;;;5073537;28;20052;-69
2021/12/10 07:10:02;;;;;;;6.32;4.18;;;;;;;;;;5073686;28;20140;-69
2021/12/10 07:12:28;;;;;;;7.85;4.07;;;;;;;;;;5086027;28;20062;-69
2021/12/10 07:14:59;;;;;;;12.70;4.85;;;;;;;;;;5081371;28;20053;-69
2021/12/10 07:17:26;;;;;;;8.68;3.55;;;;;;;;;;5074588;28;20518;-69
2021/12/10 07:19:52;;;;;;;10.27;4.25;;;;;;;;;;5053468;28;20452;-70
2021/12/10 07:22:19;;;;;;;13.00;4.68;;;;;;;;;;5057389;28;20055;-69
2021/12/10 07:24:45;;;;;;;9.27;4.60;;;;;;;;;;5069602;28;20057;-70
2021/12/10 07:27:12;;;;;;;10.07;4.00;;;;;;;;;;5073880;28;20053;-70
2021/12/10 07:29:39;;;;;;;13.93;4.70;;;;;;;;;;5072354;28;20107;-68
2021/12/10 07:32:06;;;;;;;9.85;4.22;;;;;;;;;;5072557;28;20054;-71
2021/12/10 07:34:32;;;;;;;8.27;3.80;;;;;;;;;;5073280;28;20528;-71
2021/12/10 07:36:59;;;;;;;9.73;3.72;;;;;;;;;;5072298;28;20059;-71
2021/12/10 07:39:25;;;;;;;10.15;4.03;;;;;;;;;;5072389;28;20057;-68
2021/12/10 07:41:51;;;;;;;13.32;5.00;;;;;;;;;;5073674;28;20053;-70
2021/12/10 07:44:17;;;;;;;7.63;4.18;;;;;;;;;;5073883;28;20063;-69
2021/12/10 07:46:44;;;;;;;10.52;3.97;;;;;;;;;;5087232;28;20053;-70
2021/12/10 07:49:16;;;;;;;13.20;4.85;;;;;;;;;;5082904;28;20049;-70
2021/12/10 07:51:45;;;;;;;11.60;3.63;;;;;;;;;;5075467;28;20052;-72
2021/12/10 07:54:12;;;;;;;14.63;4.65;;;;;;;;;;5073064;28;20049;-69
2021/12/10 07:56:38;;;;;;;9.68;4.50;;;;;;;;;;5074574;28;20049;-70
2021/12/10 07:59:04;;;;;;;10.38;4.78;;;;;;;;;;5075060;28;20057;-69
2021/12/10 08:01:31;;;;;;;7.45;3.47;;;;;;;;;;5073436;28;20045;-70
2021/12/10 08:04:00;;;;;;;12.55;4.47;;;;;;;;;;5073000;28;20076;-71
2021/12/10 08:06:27;;;;;;;9.55;4.25;;;;;;;;;;5069103;28;20057;-70
2021/12/10 08:08:53;;;;;;;9.32;3.60;;;;;;;;;;5071016;28;20057;-69
2021/12/10 08:11:20;;;;;;;8.65;3.88;;;;;;;;;;5072250;28;20057;-68
2021/12/10 08:13:47;;;;;;;9.13;4.03;;;;;;;;;;5066219;28;20107;-70
2021/12/10 08:16:17;;;;;;;7.97;3.97;;;;;;;;;;5070455;28;20052;-69
2021/12/10 08:18:45;;;;;;;15.60;3.80;;;;;;;;;;5071913;28;20547;-69
2021/12/10 08:21:12;;;;;;;8.20;3.42;;;;;;;;;;5069232;28;20103;-70
2021/12/10 08:23:38;;;;;;;10.43;4.07;;;;;;;;;;5070725;28;20056;-69
2021/12/10 08:26:05;;;;;;;13.13;4.70;;;;;;;;;;5072275;28;20057;-68
2021/12/10 08:28:33;;;;;;;10.80;3.60;;;;;;;;;;5073689;28;20045;-68
2021/12/10 08:31:01;;;;;;;9.57;2.97;;;;;;;;;;5072367;28;20059;-70
2021/12/10 08:33:28;;;;;;;7.18;3.67;;;;;;;;;;5072111;28;20049;-69
2021/12/10 08:35:58;;;;;;;8.77;3.85;;;;;;;;;;5070913;28;20053;-71
2021/12/10 08:38:26;;;;;;;7.95;3.42;;;;;;;;;;5072213;28;20057;-69
2021/12/10 08:40:57;;;;;;;9.70;3.90;;;;;;;;;;5075830;28;20052;-70
2021/12/10 08:43:24;;;;;;;7.88;3.42;;;;;;;;;;5072386;28;20143;-70
2021/12/10 08:45:52;;;;;;;12.35;3.83;;;;;;;;;;5071660;28;20053;-68
2021/12/10 08:48:19;;;;;;;9.43;3.55;;;;;;;;;;5074910;28;20500;-69
2021/12/10 08:50:46;;;;;;;11.30;4.03;;;;;;;;;;5079504;28;20136;-69
2021/12/10 08:53:13;;;;;;;10.45;3.72;;;;;;;;;;5070031;28;20053;-70
2021/12/10 08:55:41;;;;;;;10.07;3.92;;;;;;;;;;5072697;28;20054;-71
2021/12/10 08:58:08;;;;;;;9.60;4.07;;;;;;;;;;5070489;28;20511;-69
2021/12/10 09:00:35;;;;;;;15.82;4.53;;;;;;;;;;5070616;28;20555;-68
2021/12/10 09:03:04;;;;;;;16.45;5.25;;;;;;;;;;5071550;28;20493;-70
2021/12/10 09:05:30;;;;;;;10.73;4.18;;;;;;;;;;5080823;28;20059;-71
2021/12/10 09:07:58;;;;;;;12.77;3.95;;;;;;;;;;5070518;28;20044;-71
2021/12/10 09:10:27;;;;;;;8.63;4.35;;;;;;;;;;5070673;28;20048;-67
2021/12/10 09:12:53;;;;;;;8.88;3.70;;;;;;;;;;5071344;28;20057;-69
2021/12/10 09:15:22;;;;;;;16.08;4.25;;;;;;;;;;5071324;28;20408;-68
2021/12/10 09:17:49;;;;;;;11.50;4.18;;;;;;;;;;5071162;28;20159;-68
2021/12/10 09:20:41;;;;;;;10.65;4.28;;;;;;;;;;5070877;28;20053;-69
2021/12/10 09:23:10;;;;;;;11.80;4.38;;;;;;;;;;5070391;28;20049;-68
2021/12/10 09:25:38;;;;;;;8.65;4.38;;;;;;;;;;5069328;28;20534;-70
2021/12/10 09:28:05;;;;;;;9.27;4.05;;;;;;;;;;5074422;28;20049;-67
2021/12/10 09:30:32;;;;;;;13.23;4.97;;;;;;;;;;5067653;28;20053;-70
2021/12/10 09:32:59;;;;;;;10.48;3.95;;;;;;;;;;5077352;28;20059;-70
2021/12/10 09:35:27;;;;;;;11.43;4.93;;;;;;;;;;5090459;28;20503;-68
2021/12/10 09:37:53;;;;;;;7.57;5.05;;;;;;;;;;5079239;28;20049;-69
2021/12/10 09:40:22;;;;;;;9.50;4.38;;;;;;;;;;5063725;28;20556;-69
2021/12/10 09:42:49;;;;;;;11.13;4.13;;;;;;;;;;5071308;28;20497;-70
2021/12/10 09:45:17;;;;;;;10.93;4.30;;;;;;;;;;5072386;28;20063;-70
2021/12/10 09:47:44;;;;;;;8.52;3.88;;;;;;;;;;5079321;28;20838;-69
2021/12/10 09:50:12;;;;;;;12.65;4.80;;;;;;;;;;5071249;28;20057;-68
2021/12/10 09:52:38;;;;;;;11.98;4.18;;;;;;;;;;5072565;28;20056;-68
2021/12/10 09:55:12;;;;;;;11.60;4.63;;;;;;;;;;5070948;28;20998;-67
2021/12/10 09:57:40;;;;;;;16.20;5.00;;;;;;;;;;5070275;28;20060;-69
2021/12/10 10:00:24;;;;;;;6.85;3.67;;;;;;;;;;5082092;28;20063;-69
2021/12/10 10:02:52;;;;;;;13.68;4.28;;;;;;;;;;5086876;28;20092;-68
2021/12/10 10:05:21;;;;;;;8.55;4.35;;;;;;;;;;5072738;28;20060;-68
2021/12/10 10:07:51;;;;;;;9.25;4.60;;;;;;;;;;5070200;28;20051;-68
2021/12/10 10:10:19;;;;;;;8.10;4.45;;;;;;;;;;5070019;28;20140;-69
2021/12/10 10:12:46;;;;;;;11.05;5.40;;;;;;;;;;5072154;28;20053;-70
2021/12/10 10:15:18;;;;;;;7.80;4.40;;;;;;;;;;5070362;28;20551;-67
2021/12/10 10:17:52;;;;;;;18.15;4.75;;;;;;;;;;5077039;28;20106;-68
2021/12/10 10:20:18;;;;;;;12.05;5.15;;;;;;;;;;5087004;28;20057;-69
2021/12/10 10:22:45;;;;;;;11.45;4.65;;;;;;;;;;5081143;28;20089;-71
2021/12/10 10:25:12;;;;;;;12.27;5.10;;;;;;;;;;5091647;28;20061;-69
2021/12/10 10:27:39;;;;;;;9.15;4.43;;;;;;;;;;5090552;28;20055;-69
2021/12/10 10:30:15;;;;;;;11.88;4.90;;;;;;;;;;5088556;28;20057;-70
2021/12/10 10:32:45;;;;;;;11.85;5.43;;;;;;;;;;5087157;28;20484;-69
2021/12/10 10:35:17;;;;;;;11.27;5.45;;;;;;;;;;5080334;28;20057;-68
2021/12/10 10:37:45;;;;;;;10.10;4.82;;;;;;;;;;5089816;28;20057;-70
2021/12/10 10:40:14;;;;;;;10.02;4.85;;;;;;;;;;5073850;28;20136;-71
2021/12/10 10:42:41;;;;;;;12.57;5.10;;;;;;;;;;5074874;28;20081;-68
2021/12/10 10:45:09;;;;;;;11.60;5.57;;;;;;;;;;5075157;28;20053;-69
2021/12/10 10:47:35;;;;;;;14.48;4.97;;;;;;;;;;5074344;28;20045;-70
2021/12/10 10:50:14;;;;;;;11.15;5.07;;;;;;;;;;5073685;28;20481;-67
2021/12/10 10:52:43;;;;;;;11.40;4.93;;;;;;;;;;5071910;28;20144;-67
2021/12/10 10:55:10;;;;;;;15.55;4.93;;;;;;;;;;5075486;28;20080;-67
2021/12/10 10:57:38;;;;;;;12.77;4.32;;;;;;;;;;5078139;28;20139;-67
2021/12/10 11:00:13;;;;;;;13.23;5.18;;;;;;;;;;5073610;28;20053;-66
2021/12/10 11:02:50;;;;;;;9.63;4.85;;;;;;;;;;5073678;28;20056;-67
2021/12/10 11:05:17;;;;;;;12.43;5.20;;;;;;;;;;5073806;28;20340;-69
2021/12/10 11:07:49;;;;;;;11.48;4.28;;;;;;;;;;5072740;28;20136;-68
2021/12/10 11:10:37;;;;;;;10.38;4.82;;;;;;;;;;5073430;28;20093;-68
2021/12/10 11:13:08;;;;;;;8.65;4.65;;;;;;;;;;5075448;28;20132;-68
2021/12/10 11:15:34;;;;;;;12.85;5.00;;;;;;;;;;5076907;28;20059;-67
2021/12/10 11:18:00;;;;;;;9.13;4.63;;;;;;;;;;5074050;28;20056;-69
2021/12/10 11:20:27;;;;;;;9.98;4.55;;;;;;;;;;5075384;28;20427;-68
2021/12/10 11:22:58;;;;;;;8.00;3.97;;;;;;;;;;5074867;28;20084;-69
2021/12/10 11:25:31;;;;;;;10.73;4.60;;;;;;;;;;5087657;28;20652;-67
2021/12/10 11:28:03;;;;;;;9.43;4.40;;;;;;;;;;5080557;28;20057;-69
2021/12/10 11:30:29;;;;;;;12.00;4.78;;;;;;;;;;5074542;28;20082;-69
2021/12/10 11:33:01;;;;;;;15.13;4.70;;;;;;;;;;5072494;28;20505;-68
2021/12/10 11:35:54;;;;;;;10.38;5.15;;;;;;;;;;5072329;28;20056;-68
2021/12/10 11:38:28;;;;;;;13.60;5.22;;;;;;;;;;5071789;28;20049;-68
2021/12/10 11:40:57;;;;;;;11.88;4.82;;;;;;;;;;5073118;28;20504;-69
2021/12/10 11:48:46;;;;;;;8.18;4.35;;;;;;;;;;5076019;28;20053;-70
2021/12/10 11:51:12;;;;;;;14.93;5.63;;;;;;;;;;5073006;28;20045;-69
2021/12/10 11:53:50;;;;;;;10.48;4.43;;;;;;;;;;5071518;28;20049;-70
2021/12/10 11:56:19;;;;;;;17.27;5.00;;;;;;;;;;5078531;28;20064;-69
2021/12/10 11:59:07;;;;;;;11.00;4.85;;;;;;;;;;5065501;28;20049;-68
2021/12/10 12:01:44;;;;;;;13.18;4.05;;;;;;;;;;5054734;28;20052;-70
2021/12/10 12:04:14;;;;;;;11.88;5.07;;;;;;;;;;5071020;28;20049;-69
2021/12/10 12:06:41;;;;;;;10.93;4.47;;;;;;;;;;5071454;28;21024;-70
2021/12/10 12:09:27;;;;;;;6.68;4.22;;;;;;;;;;5072306;28;20056;-69
2021/12/10 12:12:06;;;;;;;7.47;4.10;;;;;;;;;;5073919;28;20049;-70
2021/12/10 12:14:39;;;;;;;6.78;3.90;;;;;;;;;;5072779;28;20053;-70
2021/12/10 12:17:07;;;;;;;9.10;4.20;;;;;;;;;;5072396;28;20061;-69
2021/12/10 12:19:34;;;;;;;8.23;4.10;;;;;;;;;;5072132;28;20053;-69
2021/12/10 12:25:08;;;;;;;14.13;4.38;;;;;;;;;;5071941;28;20142;-70
2021/12/10 12:27:34;;;;;;;12.10;3.90;;;;;;;;;;5071903;28;20053;-69
2021/12/10 12:30:21;;;;;;;10.40;4.05;;;;;;;;;;5071970;28;20519;-67
2021/12/10 12:33:10;;;;;;;10.00;3.45;;;;;;;;;;5072080;28;20056;-70
2021/12/10 12:35:36;;;;;;;7.72;4.15;;;;;;;;;;5071912;28;20408;-69
2021/12/10 12:38:07;;;;;;;10.10;3.40;;;;;;;;;;5069916;28;20061;-69
2021/12/10 12:41:07;;;;;;;7.97;3.60;;;;;;;;;;5072709;28;20051;-69
2021/12/10 12:43:34;;;;;;;12.77;4.05;;;;;;;;;;5050746;28;20053;-69
2021/12/10 12:46:09;;;;;;;10.83;4.00;;;;;;;;;;5064586;28;20096;-68
2021/12/10 12:48:39;;;;;;;7.85;3.40;;;;;;;;;;5071540;28;20055;-71
2021/12/10 12:51:11;;;;;;;13.18;3.40;;;;;;;;;;5061973;28;20555;-71
2021/12/10 12:53:37;;;;;;;10.43;3.30;;;;;;;;;;5071000;28;20140;-69
2021/12/10 12:56:13;;;;;;;12.98;3.50;;;;;;;;;;5059954;28;20060;-69
2021/12/10 12:59:05;;;;;;;11.48;4.00;;;;;;;;;;5068691;28;20526;-68
2021/12/10 13:01:35;;;;;;;6.57;3.20;;;;;;;;;;5057560;28;20053;-69
2021/12/10 13:04:10;;;;;;;11.95;3.63;;;;;;;;;;5071117;28;20059;-68
2021/12/10 13:07:02;;;;;;;15.07;3.33;;;;;;;;;;5083109;28;20057;-69
2021/12/10 13:09:45;;;;;;;12.07;3.55;;;;;;;;;;5063353;28;20059;-69
2021/12/10 13:12:29;;;;;;;6.68;2.70;;;;;;;;;;5064237;28;20055;-68
2021/12/10 13:15:01;;;;;;;14.95;3.55;;;;;;;;;;5054407;28;20053;-69
2021/12/10 13:17:35;;;;;;;10.55;4.07;;;;;;;;;;5074338;28;20061;-69
2021/12/10 13:20:05;;;;;;;11.63;3.25;;;;;;;;;;5068499;28;20068;-69
2021/12/10 13:22:32;;;;;;;6.35;2.53;;;;;;;;;;5069439;28;20128;-69
2021/12/10 13:25:03;;;;;;;11.20;3.03;;;;;;;;;;5071000;28;20139;-68
2021/12/10 13:27:31;;;;;;;7.57;2.92;;;;;;;;;;5063332;28;20053;-68
2021/12/10 13:30:16;;;;;;;6.90;3.28;;;;;;;;;;5063773;28;20048;-68
2021/12/10 13:32:44;;;;;;;10.98;3.85;;;;;;;;;;5070008;28;20420;-69
2021/12/10 13:35:11;;;;;;;5.75;2.80;;;;;;;;;;5066588;28;20052;-69
2021/12/10 13:37:37;;;;;;;6.05;3.55;;;;;;;;;;5076870;28;20386;-70
2021/12/10 13:40:04;;;;;;;9.07;3.25;;;;;;;;;;5070700;28;20421;-69
2021/12/10 13:42:31;;;;;;;7.57;3.33;;;;;;;;;;5070671;28;20048;-69
2021/12/10 13:44:57;;;;;;;9.43;3.88;;;;;;;;;;5070971;28;20420;-71
2021/12/10 13:47:33;;;;;;;10.90;3.50;;;;;;;;;;5070508;28;20059;-71
2021/12/10 13:50:05;;;;;;;10.63;3.65;;;;;;;;;;5070231;28;20064;-73
2021/12/10 13:52:34;;;;;;;11.32;3.35;;;;;;;;;;5069409;28;20049;-71
2021/12/10 13:55:02;;;;;;;12.13;3.40;;;;;;;;;;5071635;28;20048;-72
2021/12/10 13:57:29;;;;;;;13.30;3.80;;;;;;;;;;5074349;28;20065;-70
2021/12/10 13:59:59;;;;;;;6.65;3.72;;;;;;;;;;5074086;28;20509;-71
2021/12/10 14:02:34;;;;;;;8.55;3.85;;;;;;;;;;5072676;28;20045;-71
2021/12/10 14:05:22;;;;;;;7.63;3.05;;;;;;;;;;5070083;28;20057;-69
2021/12/10 14:07:53;;;;;;;9.05;3.35;;;;;;;;;;5073787;28;20059;-69
2021/12/10 14:10:29;;;;;;;9.00;3.17;;;;;;;;;;5073942;28;20053;-70
2021/12/10 14:12:57;;;;;;;;;;;;;;;;;;5076194;28;20502;-71
2021/12/10 14:15:27;;;;;;;10.68;3.42;;;;;;;;;;5053435;28;45603;-71
2021/12/10 14:18:24;;;;;;;5.72;3.15;;;;;;;;;;5067453;28;20048;-70
2021/12/10 14:21:12;;;;;;;12.30;4.18;;;;;;;;;;5074080;28;20053;-70
2021/12/10 14:23:59;;;;;;;8.32;3.45;;;;;;;;;;5073211;28;20064;-70
2021/12/10 14:27:01;;;;;;;12.85;3.97;;;;;;;;;;5074268;28;20053;-70
2021/12/10 14:30:06;;;;;;;7.32;3.40;;;;;;;;;;5074788;28;20049;-69
2021/12/10 14:32:35;;;;;;;11.32;4.10;;;;;;;;;;5074988;28;20049;-70
2021/12/10 14:35:05;;;;;;;9.30;3.17;;;;;;;;;;5076532;28;20084;-70
2021/12/10 14:37:49;;;;;;;4.80;3.25;;;;;;;;;;5075155;28;20808;-70
2021/12/10 14:40:48;;;;;;;11.50;3.72;;;;;;;;;;5072149;28;20053;-71
2021/12/10 14:43:23;;;;;;;10.25;4.00;;;;;;;;;;5074173;28;20148;-70
2021/12/10 14:46:01;;;;;;;8.30;3.58;;;;;;;;;;5074160;28;20622;-69
2021/12/10 14:48:28;;;;;;;8.80;3.53;;;;;;;;;;5073838;28;20056;-70
2021/12/10 14:51:17;;;;;;;9.90;3.00;;;;;;;;;;5074030;28;20049;-70
2021/12/10 14:54:15;;;;;;;6.90;3.38;;;;;;;;;;5073566;28;20084;-70
2021/12/10 14:57:02;;;;;;;7.03;3.25;;;;;;;;;;5074404;28;20598;-71
2021/12/10 14:59:49;;;;;;;11.70;4.47;;;;;;;;;;5073542;28;20045;-70
2021/12/10 15:02:35;;;;;;;7.70;4.28;;;;;;;;;;5073548;28;20052;-71
2021/12/10 15:05:22;;;;;;;7.97;3.42;;;;;;;;;;5073516;28;20072;-71
2021/12/10 15:08:10;;;;;;;11.85;3.60;;;;;;;;;;5072998;28;20103;-71